createdAt,value
2023-03-12T00:00:39.399Z,17.90
2023-03-12T00:01:39.445Z,17.90
2023-03-12T00:02:39.561Z,17.91
2023-03-12T00:03:39.605Z,17.90
2023-03-12T00:04:39.539Z,17.90
2023-03-12T00:05:39.582Z,17.90
2023-03-12T00:06:39.666Z,17.91
2023-03-12T00:07:39.677Z,17.90
2023-03-12T00:08:39.701Z,17.91
2023-03-12T00:09:39.731Z,17.91
2023-03-12T00:10:39.760Z,17.90
2023-03-12T00:11:39.792Z,17.90
2023-03-12T00:12:39.840Z,17.90
2023-03-12T00:13:39.901Z,17.90
2023-03-12T00:14:39.926Z,17.90
2023-03-12T00:15:40.786Z,17.90
2023-03-12T00:16:40.000Z,17.89
2023-03-12T00:17:40.037Z,17.90
2023-03-12T00:35:40.748Z,17.87
2023-03-12T00:41:41.011Z,17.86
2023-03-12T00:42:41.048Z,17.86
2023-03-12T00:43:41.099Z,17.86
2023-03-12T00:44:41.135Z,17.86
2023-03-12T00:45:41.179Z,17.85
2023-03-12T00:46:41.315Z,17.86
2023-03-12T00:47:41.264Z,17.86
2023-03-12T00:48:41.305Z,17.86
2023-03-12T00:49:41.355Z,17.85
2023-03-12T00:50:41.451Z,17.85
2023-03-12T00:51:41.455Z,17.84
2023-03-12T00:52:41.565Z,17.84
2023-03-12T00:53:41.530Z,17.85
2023-03-12T00:54:41.574Z,17.85
2023-03-12T00:55:41.625Z,17.84
2023-03-12T00:56:41.700Z,17.85
2023-03-12T00:57:41.729Z,17.85
2023-03-12T00:58:41.781Z,17.86
2023-03-12T00:59:41.834Z,17.85
2023-03-12T01:00:41.914Z,17.85
2023-03-12T01:01:41.927Z,17.84
2023-03-12T01:02:41.981Z,17.84
2023-03-12T01:03:42.831Z,17.84
2023-03-12T01:04:42.074Z,17.84
2023-03-12T01:05:42.782Z,17.83
2023-03-12T01:06:42.158Z,17.83
2023-03-12T01:07:42.223Z,17.83
2023-03-12T01:08:42.281Z,17.83
2023-03-12T01:09:42.319Z,17.83
2023-03-12T01:10:42.373Z,17.82
2023-03-12T01:11:42.418Z,17.83
2023-03-12T01:12:42.499Z,17.83
2023-03-12T01:13:42.527Z,17.82
2023-03-12T01:14:42.590Z,17.82
2023-03-12T01:15:42.624Z,17.83
2023-03-12T01:16:42.811Z,17.83
2023-03-12T01:17:42.763Z,17.83
2023-03-12T01:18:42.790Z,17.83
2023-03-12T01:19:42.872Z,17.83
2023-03-12T01:20:42.874Z,17.82
2023-03-12T01:21:42.915Z,17.82
2023-03-12T01:22:42.969Z,17.82
2023-03-12T01:23:43.015Z,17.82
2023-03-12T01:24:43.078Z,17.81
2023-03-12T01:25:43.100Z,17.81
2023-03-12T01:26:43.141Z,17.81
2023-03-12T01:27:43.216Z,17.82
2023-03-12T01:28:43.225Z,17.81
2023-03-12T01:29:43.754Z,17.80
2023-03-12T01:30:43.328Z,17.80
2023-03-12T01:31:43.400Z,17.80
2023-03-12T01:32:43.447Z,17.80
2023-03-12T01:33:43.460Z,17.79
2023-03-12T01:34:43.503Z,17.79
2023-03-12T01:35:43.723Z,17.80
2023-03-12T01:36:43.608Z,17.80
2023-03-12T01:37:43.654Z,17.79
2023-03-12T01:38:43.703Z,17.79
2023-03-12T01:39:43.752Z,17.80
2023-03-12T01:40:43.794Z,17.80
2023-03-12T01:41:43.839Z,17.79
2023-03-12T01:42:43.878Z,17.79
2023-03-12T01:43:43.934Z,17.79
2023-03-12T01:44:43.950Z,17.79
2023-03-12T01:45:44.022Z,17.79
2023-03-12T01:46:44.051Z,17.79
2023-03-12T01:47:44.096Z,17.80
2023-03-12T01:48:44.141Z,17.79
2023-03-12T01:49:44.734Z,17.79
2023-03-12T01:50:44.235Z,17.79
2023-03-12T01:51:44.273Z,17.78
2023-03-12T01:52:44.393Z,17.78
2023-03-12T01:53:44.388Z,17.78
2023-03-12T01:54:44.432Z,17.79
2023-03-12T01:55:44.476Z,17.78
2023-03-12T01:56:44.555Z,17.78
2023-03-12T01:57:44.581Z,17.78
2023-03-12T01:58:44.638Z,17.77
2023-03-12T01:59:44.694Z,17.77
2023-03-12T02:00:44.784Z,17.76
2023-03-12T02:01:44.817Z,17.77
2023-03-12T02:02:44.853Z,17.77
2023-03-12T02:03:44.926Z,17.77
2023-03-12T02:04:44.948Z,17.77
2023-03-12T02:05:45.004Z,17.76
2023-03-12T02:06:45.034Z,17.76
2023-03-12T02:07:45.082Z,17.76
2023-03-12T02:08:45.136Z,17.76
2023-03-12T02:09:45.188Z,17.76
2023-03-12T02:10:45.226Z,17.76
2023-03-12T02:11:45.268Z,17.76
2023-03-12T02:12:45.313Z,17.76
2023-03-12T02:13:45.388Z,17.76
2023-03-12T02:14:45.408Z,17.76
2023-03-12T02:15:45.467Z,17.76
2023-03-12T02:16:45.582Z,17.75
2023-03-12T02:17:45.560Z,17.75
2023-03-12T02:18:45.611Z,17.75
2023-03-12T02:19:45.665Z,17.75
2023-03-12T02:20:45.709Z,17.75
2023-03-12T02:21:45.756Z,17.74
2023-03-12T02:22:45.809Z,17.74
2023-03-12T02:23:45.925Z,17.74
2023-03-12T02:24:45.906Z,17.74
2023-03-12T02:25:45.967Z,17.74
2023-03-12T02:26:45.998Z,17.74
2023-03-12T02:27:46.094Z,17.74
2023-03-12T02:28:46.102Z,17.75
2023-03-12T02:29:46.161Z,17.74
2023-03-12T02:30:46.198Z,17.74
2023-03-12T02:31:46.272Z,17.74
2023-03-12T02:32:46.447Z,17.72
2023-03-12T02:33:46.359Z,17.73
2023-03-12T02:34:46.767Z,17.72
2023-03-12T02:35:46.477Z,17.72
2023-03-12T02:36:46.521Z,17.72
2023-03-12T02:37:46.633Z,17.72
2023-03-12T02:38:46.640Z,17.72
2023-03-12T02:39:46.703Z,17.72
2023-03-12T02:40:46.747Z,17.72
2023-03-12T02:41:46.789Z,17.72
2023-03-12T02:42:46.832Z,17.72
2023-03-12T02:43:46.896Z,17.72
2023-03-12T02:44:47.028Z,17.72
2023-03-12T02:45:47.807Z,17.72
2023-03-12T02:46:47.051Z,17.71
2023-03-12T02:47:47.114Z,17.70
2023-03-12T02:48:47.178Z,17.70
2023-03-12T02:49:47.216Z,17.71
2023-03-12T02:50:47.280Z,17.70
2023-03-12T02:51:47.354Z,17.71
2023-03-12T02:52:47.409Z,17.70
2023-03-12T02:53:47.459Z,17.71
2023-03-12T02:54:47.520Z,17.70
2023-03-12T02:55:47.576Z,17.70
2023-03-12T02:56:47.638Z,17.70
2023-03-12T02:57:47.679Z,17.71
2023-03-12T02:58:47.752Z,17.70
2023-03-12T02:59:47.787Z,17.70
2023-03-12T03:00:47.842Z,17.70
2023-03-12T03:01:47.907Z,17.70
2023-03-12T03:02:47.941Z,17.69
2023-03-12T03:03:48.062Z,17.69
2023-03-12T03:04:48.057Z,17.69
2023-03-12T03:05:48.104Z,17.69
2023-03-12T03:06:48.167Z,17.70
2023-03-12T03:07:48.208Z,17.70
2023-03-12T03:08:48.275Z,17.69
2023-03-12T03:09:48.334Z,17.69
2023-03-12T03:10:48.432Z,17.68
2023-03-12T03:11:48.445Z,17.69
2023-03-12T03:12:48.506Z,17.69
2023-03-12T03:13:48.561Z,17.69
2023-03-12T03:14:48.708Z,17.67
2023-03-12T03:15:48.724Z,17.68
2023-03-12T03:16:48.747Z,17.68
2023-03-12T03:17:48.816Z,17.68
2023-03-12T03:18:48.866Z,17.67
2023-03-12T03:19:48.924Z,17.67
2023-03-12T03:20:48.978Z,17.67
2023-03-12T03:21:49.029Z,17.67
2023-03-12T03:22:49.773Z,17.66
2023-03-12T03:23:49.162Z,17.66
2023-03-12T03:24:49.208Z,17.66
2023-03-12T03:25:49.255Z,17.65
2023-03-12T03:26:49.307Z,17.67
2023-03-12T03:27:49.375Z,17.67
2023-03-12T03:28:49.459Z,17.67
2023-03-12T03:29:50.609Z,17.67
2023-03-12T03:30:49.575Z,17.66
2023-03-12T03:31:49.598Z,17.66
2023-03-12T03:32:49.742Z,17.65
2023-03-12T03:33:49.719Z,17.66
2023-03-12T03:34:49.777Z,17.66
2023-03-12T03:35:49.903Z,17.66
2023-03-12T03:36:49.883Z,17.66
2023-03-12T03:37:50.779Z,17.66
2023-03-12T03:38:49.991Z,17.65
2023-03-12T03:39:50.054Z,17.66
2023-03-12T03:40:50.109Z,17.65
2023-03-12T03:41:50.154Z,17.65
2023-03-12T03:42:50.283Z,17.65
2023-03-12T03:43:50.401Z,17.65
2023-03-12T03:44:50.341Z,17.64
2023-03-12T03:45:50.411Z,17.65
2023-03-12T03:46:50.442Z,17.65
2023-03-12T03:47:50.490Z,17.64
2023-03-12T03:48:50.555Z,17.64
2023-03-12T03:49:50.625Z,17.64
2023-03-12T03:50:50.693Z,17.64
2023-03-12T03:51:50.743Z,17.64
2023-03-12T03:52:50.793Z,17.64
2023-03-12T03:53:50.863Z,17.64
2023-03-12T03:54:50.920Z,17.63
2023-03-12T03:55:51.048Z,17.62
2023-03-12T03:56:51.062Z,17.63
2023-03-12T03:57:51.124Z,17.63
2023-03-12T03:58:51.178Z,17.63
2023-03-12T03:59:51.235Z,17.63
2023-03-12T04:00:51.349Z,17.63
2023-03-12T04:01:51.387Z,17.63
2023-03-12T04:02:51.454Z,17.62
2023-03-12T04:03:51.504Z,17.61
2023-03-12T04:04:51.594Z,17.62
2023-03-12T04:05:51.670Z,17.63
2023-03-12T04:06:51.709Z,17.62
2023-03-12T04:07:51.776Z,17.62
2023-03-12T04:08:51.842Z,17.62
2023-03-12T04:09:51.917Z,17.61
2023-03-12T04:10:51.974Z,17.61
2023-03-12T04:11:52.056Z,17.61
2023-03-12T04:12:52.080Z,17.61
2023-03-12T04:13:52.171Z,17.61
2023-03-12T04:14:52.205Z,17.60
2023-03-12T04:15:52.338Z,17.61
2023-03-12T04:16:52.329Z,17.61
2023-03-12T04:17:52.440Z,17.61
2023-03-12T04:18:52.452Z,17.61
2023-03-12T04:19:52.582Z,17.60
2023-03-12T04:20:52.645Z,17.60
2023-03-12T04:21:52.733Z,17.61
2023-03-12T04:22:52.712Z,17.60
2023-03-12T04:23:52.777Z,17.60
2023-03-12T04:24:52.917Z,17.60
2023-03-12T04:25:52.915Z,17.60
2023-03-12T04:26:52.967Z,17.60
2023-03-12T04:27:53.046Z,17.59
2023-03-12T04:28:53.101Z,17.59
2023-03-12T04:29:53.158Z,17.59
2023-03-12T04:30:53.288Z,17.59
2023-03-12T04:31:53.287Z,17.59
2023-03-12T04:32:53.382Z,17.59
2023-03-12T04:33:53.433Z,17.59
2023-03-12T04:34:53.506Z,17.59
2023-03-12T04:35:53.585Z,17.59
2023-03-12T04:36:53.637Z,17.59
2023-03-12T04:37:53.714Z,17.58
2023-03-12T04:38:53.789Z,17.58
2023-03-12T04:39:53.867Z,17.58
2023-03-12T04:40:53.933Z,17.58
2023-03-12T04:41:54.002Z,17.57
2023-03-12T04:42:54.062Z,17.57
2023-03-12T04:43:54.130Z,17.58
2023-03-12T04:44:54.211Z,17.57
2023-03-12T04:45:54.263Z,17.57
2023-03-12T04:46:54.354Z,17.57
2023-03-12T04:47:54.408Z,17.57
2023-03-12T04:48:54.466Z,17.56
2023-03-12T04:49:54.529Z,17.57
2023-03-12T04:50:54.813Z,17.56
2023-03-12T04:51:54.675Z,17.57
2023-03-12T04:52:54.731Z,17.56
2023-03-12T04:53:54.816Z,17.56
2023-03-12T04:54:54.898Z,17.56
2023-03-12T04:55:54.943Z,17.56
2023-03-12T06:14:01.351Z,17.47
2023-03-12T06:15:00.665Z,17.47
2023-03-12T06:16:00.737Z,17.47
2023-03-12T06:17:00.861Z,17.47
2023-03-12T06:18:00.894Z,17.47
2023-03-12T06:19:00.957Z,17.47
2023-03-12T06:20:01.053Z,17.47
2023-03-12T06:21:01.113Z,17.47
2023-03-12T06:22:01.204Z,17.47
2023-03-12T06:23:01.274Z,17.47
2023-03-12T06:24:01.349Z,17.47
2023-03-12T06:25:01.447Z,17.47
2023-03-12T06:26:01.490Z,17.48
2023-03-12T06:27:01.576Z,17.47
2023-03-12T06:28:01.645Z,17.47
2023-03-12T06:29:01.737Z,17.48
2023-03-12T06:30:01.799Z,17.46
2023-03-12T06:31:01.881Z,17.47
2023-03-12T06:32:02.012Z,17.47
2023-03-12T06:33:02.036Z,17.46
2023-03-12T06:34:02.119Z,17.46
2023-03-12T06:35:02.198Z,17.46
2023-03-12T06:36:02.288Z,17.45
2023-03-12T06:37:02.345Z,17.45
2023-03-12T06:38:02.428Z,17.45
2023-03-12T06:39:02.494Z,17.46
2023-03-12T06:40:02.569Z,17.46
2023-03-12T06:41:02.653Z,17.46
2023-03-12T06:42:02.732Z,17.45
2023-03-12T06:43:02.808Z,17.46
2023-03-12T06:44:02.868Z,17.45
2023-03-12T06:45:02.948Z,17.45
2023-03-12T06:46:03.061Z,17.46
2023-03-12T06:47:03.103Z,17.46
2023-03-12T06:48:03.173Z,17.45
2023-03-12T06:49:03.247Z,17.45
2023-03-12T06:50:03.316Z,17.46
2023-03-12T06:51:03.394Z,17.45
2023-03-12T06:52:03.485Z,17.45
2023-03-12T06:53:03.564Z,17.45
2023-03-12T06:54:04.359Z,17.44
2023-03-12T06:55:03.677Z,17.44
2023-03-12T06:56:03.772Z,17.45
2023-03-12T06:57:03.834Z,17.44
2023-03-12T06:58:03.912Z,17.44
2023-03-12T06:59:03.976Z,17.44
2023-03-12T07:00:04.050Z,17.45
2023-03-12T07:01:04.116Z,17.45
2023-03-12T07:02:04.192Z,17.45
2023-03-12T07:03:04.250Z,17.44
2023-03-12T07:04:04.311Z,17.44
2023-03-12T07:05:04.956Z,17.44
2023-03-12T07:06:04.534Z,17.45
2023-03-12T07:07:04.548Z,17.45
2023-03-12T07:08:04.637Z,17.45
2023-03-12T07:09:04.674Z,17.46
2023-03-12T07:10:04.756Z,17.46
2023-03-12T07:11:04.821Z,17.46
2023-03-12T07:12:04.896Z,17.46
2023-03-12T07:13:04.980Z,17.46
2023-03-12T07:14:05.036Z,17.46
2023-03-12T07:15:05.135Z,17.46
2023-03-12T07:16:05.210Z,17.46
2023-03-12T07:17:05.320Z,17.45
2023-03-12T07:18:05.358Z,17.45
2023-03-12T07:19:05.448Z,17.44
2023-03-12T07:20:05.519Z,17.44
2023-03-12T07:21:05.655Z,17.44
2023-03-12T07:22:05.650Z,17.44
2023-03-12T07:23:05.730Z,17.45
2023-03-12T07:24:05.796Z,17.44
2023-03-12T07:25:06.865Z,17.45
2023-03-12T07:26:05.977Z,17.45
2023-03-12T07:27:06.033Z,17.45
2023-03-12T07:28:06.104Z,17.45
2023-03-12T07:29:06.174Z,17.44
2023-03-12T07:30:06.236Z,17.44
2023-03-12T07:31:06.371Z,17.44
2023-03-12T07:32:06.389Z,17.44
2023-03-12T07:33:06.647Z,17.44
2023-03-12T07:34:06.840Z,17.45
2023-03-12T07:35:06.611Z,17.45
2023-03-12T07:36:06.748Z,17.45
2023-03-12T07:37:06.754Z,17.44
2023-03-12T07:38:06.897Z,17.45
2023-03-12T07:39:06.889Z,17.44
2023-03-12T07:40:07.018Z,17.44
2023-03-12T07:41:07.125Z,17.44
2023-03-12T07:42:07.148Z,17.43
2023-03-12T07:43:07.231Z,17.44
2023-03-12T07:44:07.374Z,17.44
2023-03-12T07:46:07.391Z,17.45
2023-03-12T07:47:22.795Z,17.45
2023-03-12T07:49:07.471Z,17.44
2023-03-12T07:50:07.553Z,17.45
2023-03-12T07:51:07.559Z,17.45
2023-03-12T07:53:07.521Z,17.45
2023-03-12T07:54:07.534Z,17.45
2023-03-12T07:55:07.604Z,17.45
2023-03-12T07:56:07.665Z,17.45
2023-03-12T07:57:07.657Z,17.45
2023-03-12T07:58:07.695Z,17.45
2023-03-12T07:59:07.670Z,17.44
2023-03-12T08:00:07.662Z,17.46
2023-03-12T08:01:07.645Z,17.45
2023-03-12T08:02:07.736Z,17.44
2023-03-12T08:03:07.908Z,17.44
2023-03-12T08:04:07.758Z,17.44
2023-03-12T08:05:07.712Z,17.43
2023-03-12T08:06:07.691Z,17.43
2023-03-12T08:07:09.325Z,17.43
2023-03-12T08:08:07.624Z,17.45
2023-03-12T08:09:07.639Z,17.46
2023-03-12T08:10:07.761Z,17.46
2023-03-12T08:11:07.664Z,17.47
2023-03-12T08:12:07.731Z,17.47
2023-03-12T08:13:07.762Z,17.47
2023-03-12T08:14:07.706Z,17.47
2023-03-12T08:15:07.704Z,17.47
2023-03-12T08:16:09.526Z,17.47
2023-03-12T08:17:07.735Z,17.47
2023-03-12T08:18:07.833Z,17.47
2023-03-12T08:19:07.834Z,17.48
2023-03-12T08:20:07.925Z,17.48
2023-03-12T08:21:07.981Z,17.48
2023-03-12T08:22:08.037Z,17.48
2023-03-12T08:23:08.107Z,17.47
2023-03-12T08:59:10.629Z,17.44
2023-03-12T09:00:10.700Z,17.45
2023-03-12T09:01:10.773Z,17.44
2023-03-12T09:02:10.844Z,17.43
2023-03-12T09:03:10.927Z,17.43
2023-03-12T09:04:11.095Z,17.44
2023-03-12T09:05:11.096Z,17.43
2023-03-12T09:06:11.156Z,17.43
2023-03-12T09:07:11.224Z,17.43
2023-03-12T09:08:11.287Z,17.43
2023-03-12T09:09:11.386Z,17.43
2023-03-12T09:15:11.786Z,17.43
2023-03-12T11:39:20.959Z,17.52
2023-03-12T11:46:21.479Z,17.50
2023-03-12T11:49:20.655Z,17.49
2023-03-12T11:50:20.739Z,17.49
2023-03-12T11:51:20.772Z,17.49
2023-03-12T11:52:20.814Z,17.48
2023-03-12T11:53:20.856Z,17.48
2023-03-12T11:54:20.915Z,17.48
2023-03-12T11:55:20.959Z,17.48
2023-03-12T11:56:21.257Z,17.48
2023-03-12T11:57:21.060Z,17.48
2023-03-12T11:58:21.120Z,17.49
2023-03-12T11:59:21.167Z,17.49
2023-03-12T12:00:21.221Z,17.49
2023-03-12T12:01:21.282Z,17.49
2023-03-12T12:02:21.607Z,17.50
2023-03-12T12:03:21.468Z,17.51
2023-03-12T12:04:21.438Z,17.53
2023-03-12T12:05:21.487Z,17.57
2023-03-12T12:06:21.524Z,17.57
2023-03-12T12:07:21.639Z,17.57
2023-03-12T12:08:21.612Z,17.58
2023-03-12T12:09:21.652Z,17.61
2023-03-12T12:10:21.764Z,17.63
2023-03-12T12:11:21.728Z,17.63
2023-03-12T12:12:21.769Z,17.65
2023-03-12T12:13:21.802Z,17.65
2023-03-12T12:14:21.839Z,17.65
2023-03-12T12:15:21.887Z,17.64
2023-03-12T12:16:21.991Z,17.63
2023-03-12T12:17:21.937Z,17.62
2023-03-12T12:18:21.993Z,17.61
2023-03-12T12:19:22.002Z,17.61
2023-03-12T12:20:22.051Z,17.58
2023-03-12T12:21:22.071Z,17.58
2023-03-12T12:22:22.103Z,17.58
2023-03-12T12:23:22.145Z,17.57
2023-03-12T12:24:22.173Z,17.55
2023-03-12T12:25:22.211Z,17.55
2023-03-12T12:26:22.258Z,17.56
2023-03-12T12:27:22.478Z,17.56
2023-03-12T12:28:22.355Z,17.55
2023-03-12T12:29:22.407Z,17.55
2023-03-12T12:30:22.485Z,17.55
2023-03-12T12:31:22.578Z,17.55
2023-03-12T12:32:22.575Z,17.55
2023-03-12T12:33:22.577Z,17.55
2023-03-12T12:35:22.684Z,17.55
2023-03-12T12:36:22.714Z,17.55
2023-03-12T12:37:22.771Z,17.54
2023-03-12T12:38:22.863Z,17.53
2023-03-12T13:33:25.754Z,17.58
2023-03-12T16:41:31.079Z,17.57
2023-03-12T16:43:30.616Z,17.56
2023-03-12T16:44:30.667Z,17.56
2023-03-12T16:45:30.732Z,17.56
2023-03-12T16:46:30.821Z,17.56
2023-03-12T16:47:30.828Z,17.55
2023-03-12T16:48:30.871Z,17.55
2023-03-12T16:49:31.571Z,17.54
2023-03-12T16:50:30.960Z,17.55
2023-03-12T16:51:31.014Z,17.54
2023-03-12T16:52:31.063Z,17.53
2023-03-12T16:53:31.134Z,17.53
2023-03-12T16:54:31.188Z,17.53
2023-03-12T16:55:31.241Z,17.54
2023-03-12T16:56:31.306Z,17.54
2023-03-12T16:57:31.384Z,17.53
2023-03-12T19:09:41.131Z,17.34
2023-03-12T19:10:40.673Z,17.33
2023-03-12T19:11:40.733Z,17.34
2023-03-12T19:13:40.866Z,17.33
2023-03-12T21:26:50.639Z,17.27
2023-03-12T21:27:51.809Z,17.27
2023-03-12T21:28:50.793Z,17.27
2023-03-12T21:29:50.869Z,17.27
2023-03-12T21:30:51.001Z,17.28
2023-03-12T21:31:51.021Z,17.27
2023-03-12T21:32:51.190Z,17.28
2023-03-12T21:33:51.186Z,17.27
2023-03-12T21:34:51.252Z,17.27
2023-03-12T21:35:51.399Z,17.28
2023-03-12T21:36:51.405Z,17.28
2023-03-12T21:37:51.568Z,17.28
2023-03-12T21:38:51.565Z,17.28
2023-03-12T21:39:51.635Z,17.29
2023-03-12T21:40:51.713Z,17.28
2023-03-12T21:41:51.795Z,17.28
2023-03-12T21:42:51.875Z,17.28
2023-03-12T21:43:51.946Z,17.27
2023-03-12T21:44:52.012Z,17.27
2023-03-12T21:45:52.106Z,17.27
2023-03-12T21:46:52.188Z,17.28
2023-03-12T21:47:52.308Z,17.28
2023-03-12T21:48:52.347Z,17.26
2023-03-12T21:49:52.384Z,17.27
2023-03-12T21:50:52.455Z,17.27
2023-03-12T21:51:52.553Z,17.27
2023-03-12T21:52:52.626Z,17.27
2023-03-12T21:53:52.691Z,17.26
2023-03-12T21:54:52.762Z,17.26
2023-03-12T21:55:52.845Z,17.26
2023-03-12T21:56:53.190Z,17.27
2023-03-12T21:57:53.684Z,17.27
2023-03-12T21:58:53.088Z,17.27
2023-03-12T21:59:53.164Z,17.26
2023-03-12T22:00:53.254Z,17.27
2023-03-12T22:01:53.373Z,17.26
2023-03-12T22:02:53.417Z,17.26
2023-03-12T22:03:53.484Z,17.27
2023-03-12T22:04:53.596Z,17.26
2023-03-12T22:05:53.632Z,17.26
2023-03-12T23:35:01.215Z,17.21
2023-03-12T23:36:00.723Z,17.20
2023-03-12T23:37:00.770Z,17.20
2023-03-12T23:38:00.836Z,17.19
2023-03-12T23:39:00.911Z,17.18
2023-03-12T23:40:00.998Z,17.19
2023-03-12T23:41:01.078Z,17.20
2023-03-12T23:42:01.163Z,17.20
2023-03-12T23:43:01.238Z,17.21
2023-03-12T23:44:01.320Z,17.20
2023-03-12T23:45:01.410Z,17.20
2023-03-12T23:46:01.630Z,17.20
2023-03-12T23:47:01.570Z,17.19
2023-03-12T23:48:01.653Z,17.19
2023-03-12T23:49:01.737Z,17.18
2023-03-12T23:50:01.893Z,17.19
2023-03-12T23:51:01.968Z,17.18
2023-03-12T23:52:01.983Z,17.18
2023-03-12T23:53:02.231Z,17.18
2023-03-12T23:54:02.153Z,17.18
2023-03-12T23:55:02.224Z,17.17
2023-03-12T23:56:02.316Z,17.17
2023-03-12T23:57:02.392Z,17.17
2023-03-12T23:58:02.465Z,17.17
2023-03-12T23:59:02.575Z,17.17
